Trout Creek, MT (59874)

7:15 PM MDT on September 19, 2014 (GMT -0600)
Whitepine area | Change Station
CLOSE
Current Station
Personal Weather Station
Location: Trout Creek, MT
Elevation: 2550 ft
Nearby Weather Stations

Elev 2550 ft 47.77 °N, 115.50 °W | Updated 3 minutes ago

Mostly Cloudy
Mostly Cloudy
68.1 °F
Feels Like 68.1 °F
N
0.4
Wind Variable Wind from NE
Gusts 2.2 mph

Today
High -- | Low -- °F
--% Chance of Precip.
Yesterday
High -- | Low -- °F
Precip. -- in
7:24 AM 7:46 PM
Waning Crescent, 15% visible
Pressure 30.02 in
Visibility 10.0 miles
Clouds Mostly Cloudy 6500 ft
Mostly Cloudy 7500 ft
Overcast 8500 ft
Dew Point 47 °F
Humidity 47%
Rainfall 0.00 in
Snow Depth 0 in , 0 in , 0 in
UV 0 out of 12
Pollen 2.20 out of 12
Air Quality Not available.
Flu Activity Not available.
METAR KSZT 200055Z AUTO 36004KT 10SM BKN065 BKN075 OVC085 19/12 A3002 RMK AO2

More Conditions Fewer Conditions

Pressure 30.02 in
Visibility 10.0 miles
Clouds Mostly Cloudy 6500 ft
Mostly Cloudy 7500 ft
Overcast 8500 ft
Dew Point 47 °F
Humidity 47%
Rainfall 0.00 in
Snow Depth 0 in , 0 in , 0 in
UV 0 out of 12
Pollen 2.20 out of 12
Air Quality Not available.
Flu Activity Not available.
METAR KSZT 200055Z AUTO 36004KT 10SM BKN065 BKN075 OVC085 19/12 A3002 RMK AO2

More Conditions Fewer Conditions

10-Day Weather Forecast

Almanac

Astronomy

Sep. 19, 2014 Rise Set
Actual Time 7:24 AM MDT 7:46 PM MDT
Civil Twilight 6:54 AM MDT 8:16 PM MDT
Nautical Twilight 6:17 AM MDT 8:53 PM MDT
Astronomical Twilight 5:39 AM MDT 9:31 PM MDT
Moon 2:59 AM MDT (9/19) 5:30 PM MDT (9/19)
Length of Visible Light 13h 22m
Length of Day
12h 21m
Tomorrow will be 3m 26s shorter.
Waning Crescent, 15% of the Moon is Illuminated
Today
Waning Crescent
Sep 24
New
Oct 1
First Quarter
Oct 8
Full
Oct 15
Last Quarter

Today's Extremes

State Highs State Lows

Community

WunderPhotos

Upload Photos

1,754,755 photos uploaded!

WunderBlogs® & News

Nearby

Snow Depth

Station Depth Elevation
Stuart Mountain 0 in 7400 ft
Spur Park 0 in 8100 ft
Lubrecht Flume 0 in 4680 ft
Lone Mountain 0 in 8880 ft
Porcupine 0 in 6500 ft

Earthquake Activity

City Distance Mag. Time & Date
No recent earthquake activity has been reported nearby.
Minimum magnitude displayed is 2.5.

Coastal Water Temperatures

Place Temperature
No Stations Reporting

Nearby Weather Stations